sensor_id;sensor_type;location;lat;lon;timestamp;P1;durP1;ratioP1;P2;durP2;ratioP2
29732;SDS011;16643;43.158;25.302;2023-05-23T00:01:39;8.65;;;6.57;;
29732;SDS011;16643;43.158;25.302;2023-05-23T00:04:07;14.07;;;6.83;;
29732;SDS011;16643;43.158;25.302;2023-05-23T00:06:33;14.43;;;6.88;;
29732;SDS011;16643;43.158;25.302;2023-05-23T00:09:00;14.77;;;6.28;;
29732;SDS011;16643;43.158;25.302;2023-05-23T00:11:26;9.85;;;6.78;;
29732;SDS011;16643;43.158;25.302;2023-05-23T00:13:53;11.60;;;6.97;;
29732;SDS011;16643;43.158;25.302;2023-05-23T00:16:19;13.48;;;7.25;;
29732;SDS011;16643;43.158;25.302;2023-05-23T00:18:45;14.20;;;7.22;;
29732;SDS011;16643;43.158;25.302;2023-05-23T00:21:11;10.63;;;7.15;;
29732;SDS011;16643;43.158;25.302;2023-05-23T00:23:40;9.13;;;6.97;;
29732;SDS011;16643;43.158;25.302;2023-05-23T00:26:09;11.63;;;7.47;;
29732;SDS011;16643;43.158;25.302;2023-05-23T00:28:38;13.70;;;6.80;;
29732;SDS011;16643;43.158;25.302;2023-05-23T00:31:04;10.98;;;6.05;;
29732;SDS011;16643;43.158;25.302;2023-05-23T00:33:30;10.52;;;6.63;;
29732;SDS011;16643;43.158;25.302;2023-05-23T00:35:58;11.35;;;6.78;;
29732;SDS011;16643;43.158;25.302;2023-05-23T00:38:24;10.37;;;5.90;;
29732;SDS011;16643;43.158;25.302;2023-05-23T00:40:53;9.13;;;6.07;;
29732;SDS011;16643;43.158;25.302;2023-05-23T00:43:19;8.30;;;5.95;;
29732;SDS011;16643;43.158;25.302;2023-05-23T00:45:47;9.38;;;5.68;;
29732;SDS011;16643;43.158;25.302;2023-05-23T00:48:12;13.40;;;7.05;;
29732;SDS011;16643;43.158;25.302;2023-05-23T00:50:39;11.38;;;5.88;;
29732;SDS011;16643;43.158;25.302;2023-05-23T00:53:06;8.45;;;5.80;;
29732;SDS011;16643;43.158;25.302;2023-05-23T00:55:31;12.73;;;6.22;;
29732;SDS011;16643;43.158;25.302;2023-05-23T00:57:57;9.07;;;5.43;;
29732;SDS011;16643;43.158;25.302;2023-05-23T01:00:24;10.25;;;6.20;;
29732;SDS011;16643;43.158;25.302;2023-05-23T01:02:50;9.68;;;6.10;;
29732;SDS011;16643;43.158;25.302;2023-05-23T01:05:16;9.85;;;6.57;;
29732;SDS011;16643;43.158;25.302;2023-05-23T01:07:43;8.10;;;5.90;;
29732;SDS011;16643;43.158;25.302;2023-05-23T01:10:09;19.60;;;6.63;;
29732;SDS011;16643;43.158;25.302;2023-05-23T01:15:16;16.90;;;6.28;;
29732;SDS011;16643;43.158;25.302;2023-05-23T01:20:34;8.90;;;5.32;;
29732;SDS011;16643;43.158;25.302;2023-05-23T01:28:39;10.55;;;5.90;;
29732;SDS011;16643;43.158;25.302;2023-05-23T01:31:09;10.18;;;5.82;;
29732;SDS011;16643;43.158;25.302;2023-05-23T01:33:37;9.77;;;6.03;;
29732;SDS011;16643;43.158;25.302;2023-05-23T01:38:32;13.25;;;5.90;;
29732;SDS011;16643;43.158;25.302;2023-05-23T01:40:57;7.40;;;6.10;;
29732;SDS011;16643;43.158;25.302;2023-05-23T01:43:23;9.32;;;6.68;;
29732;SDS011;16643;43.158;25.302;2023-05-23T01:45:49;10.15;;;5.18;;
29732;SDS011;16643;43.158;25.302;2023-05-23T01:48:18;8.68;;;5.43;;
29732;SDS011;16643;43.158;25.302;2023-05-23T01:50:45;9.02;;;5.97;;
29732;SDS011;16643;43.158;25.302;2023-05-23T01:53:11;12.88;;;6.47;;
29732;SDS011;16643;43.158;25.302;2023-05-23T01:55:40;9.32;;;6.00;;
29732;SDS011;16643;43.158;25.302;2023-05-23T01:58:07;7.07;;;5.82;;
29732;SDS011;16643;43.158;25.302;2023-05-23T02:00:33;8.63;;;6.03;;
29732;SDS011;16643;43.158;25.302;2023-05-23T02:02:59;11.98;;;6.28;;
29732;SDS011;16643;43.158;25.302;2023-05-23T02:05:24;9.43;;;5.60;;
29732;SDS011;16643;43.158;25.302;2023-05-23T02:07:51;9.68;;;6.95;;
29732;SDS011;16643;43.158;25.302;2023-05-23T02:10:17;11.20;;;7.30;;
29732;SDS011;16643;43.158;25.302;2023-05-23T02:12:43;12.15;;;6.72;;
29732;SDS011;16643;43.158;25.302;2023-05-23T02:15:09;11.20;;;7.05;;
29732;SDS011;16643;43.158;25.302;2023-05-23T02:17:35;11.68;;;6.40;;
29732;SDS011;16643;43.158;25.302;2023-05-23T02:20:00;10.90;;;6.63;;
29732;SDS011;16643;43.158;25.302;2023-05-23T02:22:26;10.80;;;6.05;;
29732;SDS011;16643;43.158;25.302;2023-05-23T02:24:52;9.80;;;6.60;;
29732;SDS011;16643;43.158;25.302;2023-05-23T02:27:17;9.77;;;6.47;;
29732;SDS011;16643;43.158;25.302;2023-05-23T02:29:44;9.32;;;6.50;;
29732;SDS011;16643;43.158;25.302;2023-05-23T02:32:09;14.52;;;8.18;;
29732;SDS011;16643;43.158;25.302;2023-05-23T02:34:35;9.32;;;6.45;;
29732;SDS011;16643;43.158;25.302;2023-05-23T02:37:02;10.90;;;7.88;;
29732;SDS011;16643;43.158;25.302;2023-05-23T02:39:30;11.77;;;6.72;;
29732;SDS011;16643;43.158;25.302;2023-05-23T02:41:56;10.57;;;6.53;;
29732;SDS011;16643;43.158;25.302;2023-05-23T02:44:22;12.02;;;6.38;;
29732;SDS011;16643;43.158;25.302;2023-05-23T02:46:47;8.05;;;6.38;;
29732;SDS011;16643;43.158;25.302;2023-05-23T02:49:13;10.25;;;6.63;;
29732;SDS011;16643;43.158;25.302;2023-05-23T02:51:39;11.02;;;7.50;;
29732;SDS011;16643;43.158;25.302;2023-05-23T02:54:04;13.18;;;7.00;;
29732;SDS011;16643;43.158;25.302;2023-05-23T02:56:30;11.85;;;7.03;;
29732;SDS011;16643;43.158;25.302;2023-05-23T02:58:55;12.05;;;7.20;;
29732;SDS011;16643;43.158;25.302;2023-05-23T03:01:21;12.80;;;6.63;;
29732;SDS011;16643;43.158;25.302;2023-05-23T03:03:47;13.35;;;7.25;;
29732;SDS011;16643;43.158;25.302;2023-05-23T03:06:12;11.13;;;7.63;;
29732;SDS011;16643;43.158;25.302;2023-05-23T03:08:41;13.77;;;7.25;;
29732;SDS011;16643;43.158;25.302;2023-05-23T03:11:07;10.07;;;6.85;;
29732;SDS011;16643;43.158;25.302;2023-05-23T03:13:33;8.63;;;6.95;;
29732;SDS011;16643;43.158;25.302;2023-05-23T03:16:00;10.30;;;6.82;;
29732;SDS011;16643;43.158;25.302;2023-05-23T03:18:25;9.25;;;6.93;;
29732;SDS011;16643;43.158;25.302;2023-05-23T03:20:51;10.68;;;7.07;;
29732;SDS011;16643;43.158;25.302;2023-05-23T03:23:17;13.85;;;7.50;;
29732;SDS011;16643;43.158;25.302;2023-05-23T03:25:43;10.30;;;7.13;;
29732;SDS011;16643;43.158;25.302;2023-05-23T03:28:08;13.00;;;7.68;;
29732;SDS011;16643;43.158;25.302;2023-05-23T03:30:36;12.23;;;7.00;;
29732;SDS011;16643;43.158;25.302;2023-05-23T03:33:02;8.10;;;6.50;;
29732;SDS011;16643;43.158;25.302;2023-05-23T03:35:28;10.07;;;7.13;;
29732;SDS011;16643;43.158;25.302;2023-05-23T03:37:54;8.32;;;6.15;;
29732;SDS011;16643;43.158;25.302;2023-05-23T03:40:19;9.20;;;7.28;;
29732;SDS011;16643;43.158;25.302;2023-05-23T03:42:46;15.55;;;6.93;;
29732;SDS011;16643;43.158;25.302;2023-05-23T03:45:16;10.95;;;7.05;;
29732;SDS011;16643;43.158;25.302;2023-05-23T03:47:42;8.77;;;6.50;;
29732;SDS011;16643;43.158;25.302;2023-05-23T03:50:08;9.05;;;6.65;;
29732;SDS011;16643;43.158;25.302;2023-05-23T03:52:33;9.10;;;6.72;;
29732;SDS011;16643;43.158;25.302;2023-05-23T03:54:59;10.10;;;7.00;;
29732;SDS011;16643;43.158;25.302;2023-05-23T03:57:25;9.68;;;7.10;;
29732;SDS011;16643;43.158;25.302;2023-05-23T03:59:50;12.43;;;7.75;;
29732;SDS011;16643;43.158;25.302;2023-05-23T04:02:16;9.93;;;7.68;;
29732;SDS011;16643;43.158;25.302;2023-05-23T04:04:42;10.55;;;6.82;;
29732;SDS011;16643;43.158;25.302;2023-05-23T04:07:08;14.43;;;6.70;;
29732;SDS011;16643;43.158;25.302;2023-05-23T04:09:34;9.85;;;7.00;;
29732;SDS011;16643;43.158;25.302;2023-05-23T04:11:59;10.75;;;6.57;;
29732;SDS011;16643;43.158;25.302;2023-05-23T04:14:25;10.23;;;6.78;;
29732;SDS011;16643;43.158;25.302;2023-05-23T04:16:51;11.15;;;7.65;;
29732;SDS011;16643;43.158;25.302;2023-05-23T04:19:17;11.15;;;7.07;;
29732;SDS011;16643;43.158;25.302;2023-05-23T04:21:43;11.75;;;6.57;;
29732;SDS011;16643;43.158;25.302;2023-05-23T04:24:09;9.93;;;7.45;;
29732;SDS011;16643;43.158;25.302;2023-05-23T04:26:35;11.02;;;6.82;;
29732;SDS011;16643;43.158;25.302;2023-05-23T04:29:01;8.63;;;6.40;;
29732;SDS011;16643;43.158;25.302;2023-05-23T04:31:28;8.90;;;6.60;;
29732;SDS011;16643;43.158;25.302;2023-05-23T04:33:54;8.98;;;5.90;;
29732;SDS011;16643;43.158;25.302;2023-05-23T04:36:20;10.10;;;6.65;;
29732;SDS011;16643;43.158;25.302;2023-05-23T04:38:47;9.37;;;6.30;;
29732;SDS011;16643;43.158;25.302;2023-05-23T04:41:13;8.23;;;5.57;;
29732;SDS011;16643;43.158;25.302;2023-05-23T04:43:40;11.60;;;6.53;;
29732;SDS011;16643;43.158;25.302;2023-05-23T04:46:10;9.93;;;6.60;;
29732;SDS011;16643;43.158;25.302;2023-05-23T04:48:37;8.25;;;6.10;;
29732;SDS011;16643;43.158;25.302;2023-05-23T04:51:03;13.73;;;6.65;;
29732;SDS011;16643;43.158;25.302;2023-05-23T04:53:33;13.77;;;6.50;;
29732;SDS011;16643;43.158;25.302;2023-05-23T04:55:59;9.93;;;6.28;;
29732;SDS011;16643;43.158;25.302;2023-05-23T04:58:25;9.15;;;6.18;;
29732;SDS011;16643;43.158;25.302;2023-05-23T05:00:50;12.48;;;6.68;;
29732;SDS011;16643;43.158;25.302;2023-05-23T05:03:16;9.23;;;6.55;;
29732;SDS011;16643;43.158;25.302;2023-05-23T05:05:42;9.98;;;6.47;;
29732;SDS011;16643;43.158;25.302;2023-05-23T05:08:07;12.65;;;7.32;;
29732;SDS011;16643;43.158;25.302;2023-05-23T05:10:33;9.35;;;6.75;;
29732;SDS011;16643;43.158;25.302;2023-05-23T05:12:58;9.45;;;5.82;;
29732;SDS011;16643;43.158;25.302;2023-05-23T05:15:24;8.90;;;6.68;;
29732;SDS011;16643;43.158;25.302;2023-05-23T05:17:50;10.00;;;6.65;;
29732;SDS011;16643;43.158;25.302;2023-05-23T05:20:15;9.07;;;6.90;;
29732;SDS011;16643;43.158;25.302;2023-05-23T05:22:41;11.23;;;6.72;;
29732;SDS011;16643;43.158;25.302;2023-05-23T05:25:08;15.60;;;8.27;;
29732;SDS011;16643;43.158;25.302;2023-05-23T05:27:34;9.77;;;7.63;;
29732;SDS011;16643;43.158;25.302;2023-05-23T05:30:06;9.32;;;6.95;;
29732;SDS011;16643;43.158;25.302;2023-05-23T05:32:32;11.30;;;7.53;;
29732;SDS011;16643;43.158;25.302;2023-05-23T05:34:59;12.93;;;7.30;;
29732;SDS011;16643;43.158;25.302;2023-05-23T05:37:25;12.98;;;6.70;;
29732;SDS011;16643;43.158;25.302;2023-05-23T05:39:51;9.30;;;6.32;;
29732;SDS011;16643;43.158;25.302;2023-05-23T05:42:18;10.27;;;7.30;;
29732;SDS011;16643;43.158;25.302;2023-05-23T05:44:44;10.80;;;7.07;;
29732;SDS011;16643;43.158;25.302;2023-05-23T05:47:10;7.75;;;6.13;;
29732;SDS011;16643;43.158;25.302;2023-05-23T05:49:35;9.63;;;7.22;;
29732;SDS011;16643;43.158;25.302;2023-05-23T05:52:01;10.02;;;5.78;;
29732;SDS011;16643;43.158;25.302;2023-05-23T05:54:26;8.27;;;6.40;;
29732;SDS011;16643;43.158;25.302;2023-05-23T05:56:53;10.00;;;6.82;;
29732;SDS011;16643;43.158;25.302;2023-05-23T06:02:17;11.90;;;7.45;;
29732;SDS011;16643;43.158;25.302;2023-05-23T06:04:42;8.85;;;7.28;;
29732;SDS011;16643;43.158;25.302;2023-05-23T06:07:08;12.20;;;6.93;;
29732;SDS011;16643;43.158;25.302;2023-05-23T06:09:39;10.38;;;6.75;;
29732;SDS011;16643;43.158;25.302;2023-05-23T06:12:05;15.38;;;7.15;;
29732;SDS011;16643;43.158;25.302;2023-05-23T06:14:31;11.07;;;6.80;;
29732;SDS011;16643;43.158;25.302;2023-05-23T06:19:27;8.05;;;6.10;;
29732;SDS011;16643;43.158;25.302;2023-05-23T06:21:53;7.95;;;6.07;;
29732;SDS011;16643;43.158;25.302;2023-05-23T06:24:20;8.38;;;6.07;;
29732;SDS011;16643;43.158;25.302;2023-05-23T06:26:59;12.45;;;6.93;;
29732;SDS011;16643;43.158;25.302;2023-05-23T06:32:05;9.90;;;6.38;;
29732;SDS011;16643;43.158;25.302;2023-05-23T06:34:31;7.93;;;6.50;;
29732;SDS011;16643;43.158;25.302;2023-05-23T06:40:12;10.23;;;7.22;;
29732;SDS011;16643;43.158;25.302;2023-05-23T06:42:48;10.40;;;7.10;;
29732;SDS011;16643;43.158;25.302;2023-05-23T06:47:49;13.65;;;7.55;;
29732;SDS011;16643;43.158;25.302;2023-05-23T06:50:16;9.20;;;7.28;;
29732;SDS011;16643;43.158;25.302;2023-05-23T06:52:44;34.25;;;20.75;;
29732;SDS011;16643;43.158;25.302;2023-05-23T06:55:14;12.05;;;8.32;;
29732;SDS011;16643;43.158;25.302;2023-05-23T06:57:43;13.98;;;7.38;;
29732;SDS011;16643;43.158;25.302;2023-05-23T07:00:09;12.90;;;6.40;;
29732;SDS011;16643;43.158;25.302;2023-05-23T07:05:05;10.75;;;5.90;;
29732;SDS011;16643;43.158;25.302;2023-05-23T07:07:31;6.80;;;6.00;;
29732;SDS011;16643;43.158;25.302;2023-05-23T07:09:56;9.55;;;6.38;;
29732;SDS011;16643;43.158;25.302;2023-05-23T07:12:22;6.75;;;5.82;;
29732;SDS011;16643;43.158;25.302;2023-05-23T07:14:47;8.18;;;5.50;;
29732;SDS011;16643;43.158;25.302;2023-05-23T07:17:13;9.73;;;6.13;;
29732;SDS011;16643;43.158;25.302;2023-05-23T07:19:39;9.05;;;5.32;;
29732;SDS011;16643;43.158;25.302;2023-05-23T07:22:05;8.98;;;6.60;;
29732;SDS011;16643;43.158;25.302;2023-05-23T07:24:30;6.28;;;4.90;;
29732;SDS011;16643;43.158;25.302;2023-05-23T07:26:56;8.93;;;5.50;;
29732;SDS011;16643;43.158;25.302;2023-05-23T07:29:22;6.97;;;5.20;;
29732;SDS011;16643;43.158;25.302;2023-05-23T07:31:47;8.77;;;5.82;;
29732;SDS011;16643;43.158;25.302;2023-05-23T07:34:13;7.68;;;5.30;;
29732;SDS011;16643;43.158;25.302;2023-05-23T07:36:38;7.03;;;5.00;;
29732;SDS011;16643;43.158;25.302;2023-05-23T07:39:05;9.82;;;5.72;;
29732;SDS011;16643;43.158;25.302;2023-05-23T07:41:31;7.50;;;5.43;;
29732;SDS011;16643;43.158;25.302;2023-05-23T07:43:56;10.43;;;5.10;;
29732;SDS011;16643;43.158;25.302;2023-05-23T07:46:22;8.93;;;4.95;;
29732;SDS011;16643;43.158;25.302;2023-05-23T07:48:48;7.47;;;5.28;;
29732;SDS011;16643;43.158;25.302;2023-05-23T07:51:13;6.55;;;4.90;;
29732;SDS011;16643;43.158;25.302;2023-05-23T07:53:39;11.35;;;5.70;;
29732;SDS011;16643;43.158;25.302;2023-05-23T07:56:05;8.25;;;5.55;;
29732;SDS011;16643;43.158;25.302;2023-05-23T07:58:31;8.23;;;5.25;;
29732;SDS011;16643;43.158;25.302;2023-05-23T08:00:57;8.45;;;5.40;;
29732;SDS011;16643;43.158;25.302;2023-05-23T08:03:23;7.95;;;5.13;;
29732;SDS011;16643;43.158;25.302;2023-05-23T08:05:49;7.25;;;5.00;;
29732;SDS011;16643;43.158;25.302;2023-05-23T08:08:15;6.60;;;4.93;;
29732;SDS011;16643;43.158;25.302;2023-05-23T08:10:41;6.95;;;4.78;;
29732;SDS011;16643;43.158;25.302;2023-05-23T08:13:08;6.55;;;5.03;;
29732;SDS011;16643;43.158;25.302;2023-05-23T08:15:34;9.52;;;5.55;;
29732;SDS011;16643;43.158;25.302;2023-05-23T08:18:00;7.95;;;5.00;;
29732;SDS011;16643;43.158;25.302;2023-05-23T08:20:26;7.07;;;4.80;;
29732;SDS011;16643;43.158;25.302;2023-05-23T08:22:58;9.82;;;5.47;;
29732;SDS011;16643;43.158;25.302;2023-05-23T08:25:25;8.50;;;5.53;;
29732;SDS011;16643;43.158;25.302;2023-05-23T08:27:57;6.97;;;5.38;;
29732;SDS011;16643;43.158;25.302;2023-05-23T08:30:24;6.38;;;4.80;;
29732;SDS011;16643;43.158;25.302;2023-05-23T08:32:51;7.28;;;4.82;;
29732;SDS011;16643;43.158;25.302;2023-05-23T08:35:19;7.82;;;5.03;;
29732;SDS011;16643;43.158;25.302;2023-05-23T08:37:45;8.07;;;5.38;;
29732;SDS011;16643;43.158;25.302;2023-05-23T08:40:21;6.82;;;4.88;;
29732;SDS011;16643;43.158;25.302;2023-05-23T08:42:47;10.40;;;5.20;;
29732;SDS011;16643;43.158;25.302;2023-05-23T08:45:16;10.13;;;6.28;;
29732;SDS011;16643;43.158;25.302;2023-05-23T08:47:43;9.65;;;5.70;;
29732;SDS011;16643;43.158;25.302;2023-05-23T08:50:13;7.25;;;5.07;;
29732;SDS011;16643;43.158;25.302;2023-05-23T08:52:47;9.10;;;5.30;;
29732;SDS011;16643;43.158;25.302;2023-05-23T08:55:26;8.98;;;5.68;;
29732;SDS011;16643;43.158;25.302;2023-05-23T08:57:53;8.52;;;5.60;;
29732;SDS011;16643;43.158;25.302;2023-05-23T09:00:20;7.13;;;5.80;;
29732;SDS011;16643;43.158;25.302;2023-05-23T09:02:46;9.57;;;5.55;;
29732;SDS011;16643;43.158;25.302;2023-05-23T09:05:12;8.70;;;5.00;;
29732;SDS011;16643;43.158;25.302;2023-05-23T09:07:39;7.78;;;5.50;;
29732;SDS011;16643;43.158;25.302;2023-05-23T09:10:06;7.45;;;5.07;;
29732;SDS011;16643;43.158;25.302;2023-05-23T09:12:33;7.68;;;6.10;;
29732;SDS011;16643;43.158;25.302;2023-05-23T09:17:27;6.63;;;5.95;;
29732;SDS011;16643;43.158;25.302;2023-05-23T09:19:52;7.95;;;5.35;;
29732;SDS011;16643;43.158;25.302;2023-05-23T09:22:27;6.70;;;4.78;;
29732;SDS011;16643;43.158;25.302;2023-05-23T09:24:54;6.43;;;4.95;;
29732;SDS011;16643;43.158;25.302;2023-05-23T09:27:20;8.32;;;4.93;;
29732;SDS011;16643;43.158;25.302;2023-05-23T09:29:49;6.68;;;4.55;;
29732;SDS011;16643;43.158;25.302;2023-05-23T09:32:16;6.00;;;5.15;;
29732;SDS011;16643;43.158;25.302;2023-05-23T09:34:55;8.68;;;4.90;;
29732;SDS011;16643;43.158;25.302;2023-05-23T09:37:45;10.18;;;5.53;;
29732;SDS011;16643;43.158;25.302;2023-05-23T09:40:12;6.45;;;5.20;;
29732;SDS011;16643;43.158;25.302;2023-05-23T09:42:42;6.07;;;4.90;;
29732;SDS011;16643;43.158;25.302;2023-05-23T09:45:12;7.18;;;5.13;;
29732;SDS011;16643;43.158;25.302;2023-05-23T09:47:38;8.98;;;4.65;;
29732;SDS011;16643;43.158;25.302;2023-05-23T09:50:04;7.32;;;5.05;;
29732;SDS011;16643;43.158;25.302;2023-05-23T09:52:35;7.45;;;4.85;;
29732;SDS011;16643;43.158;25.302;2023-05-23T09:55:02;6.95;;;4.72;;
29732;SDS011;16643;43.158;25.302;2023-05-23T09:57:28;10.07;;;5.68;;
29732;SDS011;16643;43.158;25.302;2023-05-23T09:59:58;7.57;;;5.07;;
29732;SDS011;16643;43.158;25.302;2023-05-23T10:02:52;5.78;;;4.35;;
29732;SDS011;16643;43.158;25.302;2023-05-23T10:05:35;6.50;;;4.57;;
29732;SDS011;16643;43.158;25.302;2023-05-23T10:08:18;6.43;;;4.55;;
29732;SDS011;16643;43.158;25.302;2023-05-23T10:13:39;7.10;;;4.47;;
29732;SDS011;16643;43.158;25.302;2023-05-23T10:18:56;6.32;;;4.60;;
29732;SDS011;16643;43.158;25.302;2023-05-23T10:24:24;6.78;;;4.78;;
29732;SDS011;16643;43.158;25.302;2023-05-23T10:26:51;7.57;;;5.53;;
29732;SDS011;16643;43.158;25.302;2023-05-23T10:29:19;8.68;;;5.22;;
29732;SDS011;16643;43.158;25.302;2023-05-23T10:34:14;8.95;;;5.40;;
29732;SDS011;16643;43.158;25.302;2023-05-23T10:37:03;9.65;;;6.15;;
29732;SDS011;16643;43.158;25.302;2023-05-23T10:39:32;8.10;;;4.50;;
29732;SDS011;16643;43.158;25.302;2023-05-23T10:42:15;7.45;;;4.88;;
29732;SDS011;16643;43.158;25.302;2023-05-23T10:44:44;5.70;;;4.60;;
29732;SDS011;16643;43.158;25.302;2023-05-23T10:47:10;6.95;;;4.43;;
29732;SDS011;16643;43.158;25.302;2023-05-23T10:49:40;8.35;;;4.60;;
29732;SDS011;16643;43.158;25.302;2023-05-23T10:52:08;6.35;;;5.32;;
29732;SDS011;16643;43.158;25.302;2023-05-23T10:54:57;9.23;;;5.53;;
29732;SDS011;16643;43.158;25.302;2023-05-23T10:57:25;8.50;;;4.60;;
29732;SDS011;16643;43.158;25.302;2023-05-23T10:59:51;9.05;;;5.13;;
29732;SDS011;16643;43.158;25.302;2023-05-23T11:02:18;7.13;;;4.68;;
29732;SDS011;16643;43.158;25.302;2023-05-23T11:07:44;5.88;;;4.70;;
29732;SDS011;16643;43.158;25.302;2023-05-23T11:10:11;7.38;;;4.47;;
29732;SDS011;16643;43.158;25.302;2023-05-23T11:12:41;12.05;;;4.07;;
29732;SDS011;16643;43.158;25.302;2023-05-23T11:15:18;5.65;;;3.97;;
29732;SDS011;16643;43.158;25.302;2023-05-23T11:17:54;5.78;;;4.47;;
29732;SDS011;16643;43.158;25.302;2023-05-23T11:20:24;7.77;;;4.63;;
29732;SDS011;16643;43.158;25.302;2023-05-23T11:22:58;7.30;;;4.22;;
29732;SDS011;16643;43.158;25.302;2023-05-23T11:28:12;8.57;;;4.22;;
29732;SDS011;16643;43.158;25.302;2023-05-23T11:30:38;7.65;;;4.85;;
29732;SDS011;16643;43.158;25.302;2023-05-23T11:33:09;6.15;;;4.00;;
29732;SDS011;16643;43.158;25.302;2023-05-23T11:35:46;9.60;;;4.82;;
29732;SDS011;16643;43.158;25.302;2023-05-23T11:38:14;6.18;;;4.30;;
29732;SDS011;16643;43.158;25.302;2023-05-23T11:40:44;7.32;;;4.18;;
29732;SDS011;16643;43.158;25.302;2023-05-23T11:43:12;7.45;;;4.22;;
29732;SDS011;16643;43.158;25.302;2023-05-23T11:45:39;5.32;;;4.38;;
29732;SDS011;16643;43.158;25.302;2023-05-23T11:48:13;7.18;;;4.30;;
29732;SDS011;16643;43.158;25.302;2023-05-23T11:50:44;6.50;;;3.72;;
29732;SDS011;16643;43.158;25.302;2023-05-23T11:53:14;5.97;;;4.72;;
29732;SDS011;16643;43.158;25.302;2023-05-23T11:55:49;6.60;;;5.03;;
29732;SDS011;16643;43.158;25.302;2023-05-23T11:58:20;7.78;;;4.43;;
29732;SDS011;16643;43.158;25.302;2023-05-23T12:00:46;7.05;;;3.97;;
29732;SDS011;16643;43.158;25.302;2023-05-23T12:03:12;6.07;;;4.20;;
29732;SDS011;16643;43.158;25.302;2023-05-23T12:05:38;6.38;;;3.78;;
29732;SDS011;16643;43.158;25.302;2023-05-23T12:08:03;7.38;;;4.10;;
29732;SDS011;16643;43.158;25.302;2023-05-23T12:10:30;9.13;;;4.75;;
29732;SDS011;16643;43.158;25.302;2023-05-23T12:12:55;5.90;;;4.32;;
29732;SDS011;16643;43.158;25.302;2023-05-23T12:15:25;5.80;;;3.95;;
29732;SDS011;16643;43.158;25.302;2023-05-23T12:17:54;8.43;;;5.10;;
29732;SDS011;16643;43.158;25.302;2023-05-23T12:20:20;5.90;;;3.72;;
29732;SDS011;16643;43.158;25.302;2023-05-23T12:22:47;7.85;;;4.22;;
29732;SDS011;16643;43.158;25.302;2023-05-23T12:25:12;10.63;;;5.30;;
29732;SDS011;16643;43.158;25.302;2023-05-23T12:27:39;5.82;;;4.05;;
29732;SDS011;16643;43.158;25.302;2023-05-23T12:30:07;5.47;;;4.05;;
29732;SDS011;16643;43.158;25.302;2023-05-23T12:32:37;8.45;;;4.50;;
29732;SDS011;16643;43.158;25.302;2023-05-23T12:35:04;8.43;;;4.22;;
29732;SDS011;16643;43.158;25.302;2023-05-23T12:37:30;7.20;;;3.88;;
29732;SDS011;16643;43.158;25.302;2023-05-23T12:39:56;7.18;;;4.35;;
29732;SDS011;16643;43.158;25.302;2023-05-23T12:42:22;9.90;;;4.47;;
29732;SDS011;16643;43.158;25.302;2023-05-23T12:44:50;6.93;;;3.95;;
29732;SDS011;16643;43.158;25.302;2023-05-23T12:47:18;5.30;;;3.90;;
29732;SDS011;16643;43.158;25.302;2023-05-23T12:49:44;14.43;;;5.18;;
29732;SDS011;16643;43.158;25.302;2023-05-23T12:52:11;9.73;;;3.97;;
29732;SDS011;16643;43.158;25.302;2023-05-23T12:54:36;5.65;;;4.10;;
29732;SDS011;16643;43.158;25.302;2023-05-23T12:57:02;8.15;;;4.32;;
29732;SDS011;16643;43.158;25.302;2023-05-23T12:59:27;6.53;;;4.47;;
29732;SDS011;16643;43.158;25.302;2023-05-23T13:01:53;6.28;;;4.10;;
29732;SDS011;16643;43.158;25.302;2023-05-23T13:04:19;8.10;;;4.80;;
29732;SDS011;16643;43.158;25.302;2023-05-23T13:06:45;6.57;;;4.05;;
29732;SDS011;16643;43.158;25.302;2023-05-23T13:09:10;9.25;;;4.55;;
29732;SDS011;16643;43.158;25.302;2023-05-23T13:11:36;5.40;;;3.95;;
29732;SDS011;16643;43.158;25.302;2023-05-23T13:14:02;6.78;;;4.70;;
29732;SDS011;16643;43.158;25.302;2023-05-23T13:16:27;5.05;;;4.00;;
29732;SDS011;16643;43.158;25.302;2023-05-23T13:18:53;8.93;;;4.45;;
29732;SDS011;16643;43.158;25.302;2023-05-23T13:21:18;7.25;;;4.18;;
29732;SDS011;16643;43.158;25.302;2023-05-23T13:23:44;6.70;;;3.90;;
29732;SDS011;16643;43.158;25.302;2023-05-23T13:26:10;6.32;;;4.35;;
29732;SDS011;16643;43.158;25.302;2023-05-23T13:28:36;4.85;;;4.10;;
29732;SDS011;16643;43.158;25.302;2023-05-23T13:31:01;6.50;;;4.03;;
29732;SDS011;16643;43.158;25.302;2023-05-23T13:33:27;5.75;;;4.13;;
29732;SDS011;16643;43.158;25.302;2023-05-23T13:35:53;5.68;;;3.85;;
29732;SDS011;16643;43.158;25.302;2023-05-23T13:38:20;7.90;;;4.60;;
29732;SDS011;16643;43.158;25.302;2023-05-23T13:40:45;7.20;;;4.82;;
29732;SDS011;16643;43.158;25.302;2023-05-23T13:43:11;7.95;;;5.30;;
29732;SDS011;16643;43.158;25.302;2023-05-23T13:45:37;10.68;;;4.75;;
29732;SDS011;16643;43.158;25.302;2023-05-23T13:48:03;8.30;;;4.18;;
29732;SDS011;16643;43.158;25.302;2023-05-23T13:50:28;7.15;;;4.40;;
29732;SDS011;16643;43.158;25.302;2023-05-23T13:52:54;11.23;;;3.80;;
29732;SDS011;16643;43.158;25.302;2023-05-23T13:55:20;11.55;;;4.28;;
29732;SDS011;16643;43.158;25.302;2023-05-23T13:57:45;6.80;;;3.47;;
29732;SDS011;16643;43.158;25.302;2023-05-23T14:00:11;9.50;;;4.60;;
29732;SDS011;16643;43.158;25.302;2023-05-23T14:02:38;11.32;;;4.75;;
29732;SDS011;16643;43.158;25.302;2023-05-23T14:05:04;10.02;;;4.30;;
29732;SDS011;16643;43.158;25.302;2023-05-23T14:07:31;8.32;;;4.72;;
29732;SDS011;16643;43.158;25.302;2023-05-23T14:09:56;10.57;;;4.47;;
29732;SDS011;16643;43.158;25.302;2023-05-23T14:12:23;7.82;;;4.40;;
29732;SDS011;16643;43.158;25.302;2023-05-23T14:14:50;7.32;;;4.65;;
29732;SDS011;16643;43.158;25.302;2023-05-23T14:17:16;6.10;;;4.40;;
29732;SDS011;16643;43.158;25.302;2023-05-23T14:19:42;5.45;;;3.50;;
29732;SDS011;16643;43.158;25.302;2023-05-23T14:22:08;6.53;;;4.47;;
29732;SDS011;16643;43.158;25.302;2023-05-23T14:24:33;4.57;;;3.67;;
29732;SDS011;16643;43.158;25.302;2023-05-23T14:26:59;6.80;;;3.78;;
29732;SDS011;16643;43.158;25.302;2023-05-23T14:29:26;5.18;;;3.47;;
29732;SDS011;16643;43.158;25.302;2023-05-23T14:31:52;5.03;;;3.45;;
29732;SDS011;16643;43.158;25.302;2023-05-23T14:34:18;5.57;;;3.78;;
29732;SDS011;16643;43.158;25.302;2023-05-23T14:36:43;4.88;;;3.75;;
29732;SDS011;16643;43.158;25.302;2023-05-23T14:39:09;6.78;;;4.07;;
29732;SDS011;16643;43.158;25.302;2023-05-23T14:41:35;5.20;;;4.05;;
29732;SDS011;16643;43.158;25.302;2023-05-23T14:44:01;6.15;;;4.13;;
29732;SDS011;16643;43.158;25.302;2023-05-23T14:46:28;7.70;;;4.78;;
29732;SDS011;16643;43.158;25.302;2023-05-23T14:48:53;7.25;;;5.00;;
29732;SDS011;16643;43.158;25.302;2023-05-23T14:51:19;7.10;;;4.38;;
29732;SDS011;16643;43.158;25.302;2023-05-23T14:53:44;6.95;;;3.85;;
29732;SDS011;16643;43.158;25.302;2023-05-23T14:56:10;4.93;;;3.70;;
29732;SDS011;16643;43.158;25.302;2023-05-23T14:58:36;4.78;;;3.60;;
29732;SDS011;16643;43.158;25.302;2023-05-23T15:01:04;5.57;;;4.38;;
29732;SDS011;16643;43.158;25.302;2023-05-23T15:03:30;7.00;;;4.47;;
29732;SDS011;16643;43.158;25.302;2023-05-23T15:05:55;7.90;;;4.43;;
29732;SDS011;16643;43.158;25.302;2023-05-23T15:08:21;8.55;;;3.60;;
29732;SDS011;16643;43.158;25.302;2023-05-23T15:10:47;6.07;;;3.53;;
29732;SDS011;16643;43.158;25.302;2023-05-23T15:13:12;4.55;;;3.35;;
29732;SDS011;16643;43.158;25.302;2023-05-23T15:15:38;4.75;;;3.47;;
29732;SDS011;16643;43.158;25.302;2023-05-23T15:18:07;4.75;;;3.40;;
29732;SDS011;16643;43.158;25.302;2023-05-23T15:20:35;6.90;;;4.38;;